Pincher Creek, Canada
Current Conditions -  °F | °C
As of 1:00 AM on Wednesday 22 Oct 2014 (Local Time) from CZPC Reporting Station
Clear Clear  
Wind Chill: 38°   Ceiling: Unl
Heat Index: 46°   Visibility: 9mi
Dew Point: 34°   Wind: 25mph
Humidity: 62%   Direction: 250°WSW
Pressure: 29.85"   Gusts: NA
Location:  49.49°N, 113.95°W
Report Text: CZPC 220700Z AUTO 25022KT 9SM CLR 08/01 A2985 RMK SLP114 DENSITY ALT 4000FT
Loading
Personal Weather Stations






























Interactive Weather Map
Tropical Storm Tracking
New forecast layout! Learn more

10-Day Weather Forecast

Advertisements
Track Severe Weather on mobile